createdAt,value
2022-11-13T00:01:11.969Z,135.50
2022-11-13T00:03:40.162Z,137.87
2022-11-13T00:06:08.681Z,130.23
2022-11-13T00:08:36.698Z,139.97
2022-11-13T00:11:07.629Z,148.03
2022-11-13T00:13:37.246Z,141.70
2022-11-13T00:16:06.989Z,140.40
2022-11-13T00:18:36.549Z,155.23
2022-11-13T00:21:08.444Z,137.03
2022-11-13T00:23:37.504Z,144.60
2022-11-13T00:26:07.059Z,136.97
2022-11-13T00:28:36.717Z,140.37
2022-11-13T00:31:06.084Z,153.10
2022-11-13T00:36:26.512Z,156.00
2022-11-13T00:38:55.381Z,163.27
2022-11-13T00:41:24.071Z,160.10
2022-11-13T00:43:53.611Z,155.23
2022-11-13T00:46:21.665Z,159.83
2022-11-13T00:48:49.670Z,147.07
2022-11-13T00:51:19.539Z,154.17
2022-11-13T00:53:47.605Z,160.40
2022-11-13T00:56:15.765Z,146.30
2022-11-13T00:58:43.790Z,162.00
2022-11-13T01:01:15.362Z,160.27
2022-11-13T01:03:44.659Z,149.20
2022-11-13T01:06:14.991Z,154.83
2022-11-13T01:08:43.352Z,146.03
2022-11-13T01:11:12.849Z,165.17
2022-11-13T01:13:41.440Z,165.27
2022-11-13T01:16:13.268Z,151.63
2022-11-13T01:18:42.784Z,150.10
2022-11-13T01:21:12.549Z,154.20
2022-11-13T01:23:40.875Z,154.00
2022-11-13T01:26:11.228Z,157.30
2022-11-13T01:28:40.007Z,162.33
2022-11-13T01:31:08.758Z,158.47
2022-11-13T01:33:38.411Z,150.37
2022-11-13T01:36:14.210Z,158.87
2022-11-13T01:38:42.362Z,155.40
2022-11-13T01:41:22.894Z,144.93
2022-11-13T01:43:52.061Z,158.33
2022-11-13T01:46:27.570Z,156.47
2022-11-13T01:49:01.852Z,151.33
2022-11-13T01:51:34.209Z,166.23
2022-11-13T01:54:05.935Z,160.37
2022-11-13T01:56:34.208Z,157.67
2022-11-13T01:59:09.306Z,163.23
2022-11-13T02:01:37.414Z,164.50
2022-11-13T02:04:07.094Z,155.17
2022-11-13T02:06:39.716Z,163.90
2022-11-13T02:09:08.321Z,172.73
2022-11-13T02:11:37.214Z,147.40
2022-11-13T02:14:06.247Z,147.20
2022-11-13T02:16:37.809Z,149.70
2022-11-13T02:19:13.582Z,161.70
2022-11-13T02:21:49.227Z,155.30
2022-11-13T02:24:27.435Z,158.73
2022-11-13T02:26:57.980Z,153.80
2022-11-13T02:29:26.009Z,157.80
2022-11-13T02:31:54.063Z,155.43
2022-11-13T02:34:22.169Z,150.17
2022-11-13T02:36:50.218Z,159.87
2022-11-13T02:39:19.681Z,158.67
2022-11-13T02:41:47.712Z,164.60
2022-11-13T02:44:15.767Z,158.10
2022-11-13T02:46:44.036Z,158.47
2022-11-13T02:49:12.038Z,169.17
2022-11-13T02:51:40.024Z,158.83
2022-11-13T02:54:10.741Z,165.00
2022-11-13T02:56:42.255Z,166.50
2022-11-13T02:59:10.285Z,151.37
2022-11-13T03:01:38.294Z,157.80
2022-11-13T03:04:06.331Z,156.03
2022-11-13T03:06:34.338Z,158.27
2022-11-13T03:09:02.347Z,157.00
2022-11-13T03:11:30.356Z,174.27
2022-11-13T03:13:59.758Z,147.50
2022-11-13T03:16:27.809Z,164.93
2022-11-13T03:18:56.905Z,168.27
2022-11-13T03:21:25.402Z,165.80
2022-11-13T03:23:54.939Z,175.00
2022-11-13T03:26:23.688Z,159.40
2022-11-13T03:28:51.910Z,170.80
2022-11-13T03:31:21.830Z,163.03
2022-11-13T03:33:49.857Z,156.50
2022-11-13T03:36:17.829Z,162.10
2022-11-13T03:38:45.873Z,165.27
2022-11-13T03:41:14.866Z,166.90
2022-11-13T03:43:42.874Z,171.83
2022-11-13T03:46:11.210Z,166.00
2022-11-13T03:48:40.635Z,157.07
2022-11-13T03:51:08.907Z,157.87
2022-11-13T03:53:36.926Z,145.63
2022-11-13T03:56:05.213Z,150.13
2022-11-13T03:58:36.235Z,149.83
2022-11-13T04:01:06.579Z,145.87
2022-11-13T04:03:34.581Z,163.50
2022-11-13T04:06:03.954Z,149.53
2022-11-13T04:08:31.971Z,147.03
2022-11-13T04:11:07.762Z,148.33
2022-11-13T04:13:35.897Z,151.73
2022-11-13T04:16:03.969Z,142.47
2022-11-13T04:18:32.061Z,153.07
2022-11-13T04:21:01.030Z,139.40
2022-11-13T04:23:30.897Z,147.27
2022-11-13T04:25:59.473Z,147.80
2022-11-13T04:28:27.962Z,154.30
2022-11-13T04:30:56.567Z,154.20
2022-11-13T04:33:24.656Z,156.70
2022-11-13T04:35:52.637Z,148.40
2022-11-13T04:38:20.701Z,151.13
2022-11-13T04:41:12.339Z,160.60
2022-11-13T04:43:39.376Z,152.93
2022-11-13T04:46:07.621Z,146.83
2022-11-13T04:48:35.725Z,155.43
2022-11-13T04:51:03.742Z,158.73
2022-11-13T04:53:31.733Z,152.93
2022-11-13T04:56:01.195Z,150.90
2022-11-13T04:58:29.431Z,154.70
2022-11-13T05:00:57.730Z,146.50
2022-11-13T05:03:25.753Z,164.60
2022-11-13T05:05:53.791Z,163.70
2022-11-13T05:08:21.779Z,158.57
2022-11-13T05:10:49.765Z,166.37
2022-11-13T05:13:19.124Z,159.10
2022-11-13T05:15:47.153Z,144.57
2022-11-13T05:18:15.239Z,147.67
2022-11-13T05:20:43.219Z,152.13
2022-11-13T05:23:11.234Z,146.60
2022-11-13T05:25:39.238Z,142.30
2022-11-13T05:28:07.289Z,149.90
2022-11-13T05:30:36.752Z,155.20
2022-11-13T05:33:04.755Z,131.60
2022-11-13T05:35:33.183Z,137.17
2022-11-13T05:38:02.245Z,130.67
2022-11-13T05:40:30.926Z,144.13
2022-11-13T05:42:58.907Z,133.83
2022-11-13T05:45:27.019Z,125.50
2022-11-13T05:47:56.401Z,146.73
2022-11-13T05:50:24.469Z,124.60
2022-11-13T05:52:52.500Z,132.80
2022-11-13T05:55:23.317Z,128.70
2022-11-13T05:57:51.693Z,132.27
2022-11-13T06:00:20.241Z,138.40
2022-11-13T06:02:48.256Z,131.63
2022-11-13T06:05:17.662Z,126.00
2022-11-13T06:07:45.707Z,133.03
2022-11-13T06:10:13.743Z,119.83
2022-11-13T06:12:41.723Z,133.80
2022-11-13T06:15:10.486Z,126.87
2022-11-13T06:17:38.500Z,127.13
2022-11-13T06:20:07.169Z,134.37
2022-11-13T06:22:36.545Z,129.30
2022-11-13T06:25:04.796Z,128.37
2022-11-13T06:27:32.821Z,140.97
2022-11-13T06:30:00.806Z,136.40
2022-11-13T06:32:28.832Z,142.43
2022-11-13T06:34:56.847Z,133.63
2022-11-13T06:37:24.916Z,124.80
2022-11-13T06:39:54.314Z,125.00
2022-11-13T06:42:22.341Z,122.67
2022-11-13T06:44:50.396Z,128.40
2022-11-13T06:47:18.382Z,148.87
2022-11-13T06:49:46.419Z,134.83
2022-11-13T06:52:14.512Z,138.67
2022-11-13T06:54:42.508Z,129.13
2022-11-13T06:57:11.969Z,127.57
2022-11-13T06:59:39.958Z,131.53
2022-11-13T07:02:08.105Z,120.73
2022-11-13T07:04:36.237Z,121.80
2022-11-13T07:07:04.858Z,121.60
2022-11-13T07:09:33.213Z,119.10
2022-11-13T07:12:01.257Z,117.67
2022-11-13T07:14:30.657Z,116.10
2022-11-13T07:17:09.136Z,116.07
2022-11-13T07:19:37.929Z,116.07
2022-11-13T07:22:05.956Z,108.33
2022-11-13T07:24:34.017Z,117.57
2022-11-13T07:27:01.999Z,115.40
2022-11-13T07:29:31.391Z,110.63
2022-11-13T07:31:59.432Z,101.53
2022-11-13T07:34:27.518Z,121.77
2022-11-13T07:36:55.519Z,114.83
2022-11-13T07:39:23.556Z,104.33
2022-11-13T07:41:51.555Z,107.20
2022-11-13T07:44:33.455Z,109.10
2022-11-13T07:47:08.875Z,104.50
2022-11-13T07:49:36.869Z,112.80
2022-11-13T07:52:05.050Z,95.87
2022-11-13T07:54:33.842Z,89.83
2022-11-13T07:57:01.882Z,85.93
2022-11-13T07:59:30.002Z,79.80
2022-11-13T08:01:59.159Z,79.50
2022-11-13T08:04:28.767Z,85.93
2022-11-13T08:06:56.793Z,77.13
2022-11-13T08:09:25.013Z,76.87
2022-11-13T08:11:53.010Z,75.30
2022-11-13T08:14:21.024Z,68.30
2022-11-13T08:16:49.023Z,80.20
2022-11-13T08:19:17.012Z,64.83
2022-11-13T08:21:46.448Z,65.57
2022-11-13T08:24:14.664Z,77.03
2022-11-13T08:26:42.696Z,69.07
2022-11-13T08:29:10.754Z,68.50
2022-11-13T08:31:38.776Z,61.57
2022-11-13T08:34:06.811Z,68.07
2022-11-13T08:36:34.850Z,65.53
2022-11-13T08:39:04.301Z,61.93
2022-11-13T08:41:32.326Z,56.83
2022-11-13T08:44:00.389Z,55.90
2022-11-13T08:46:28.712Z,55.63
2022-11-13T08:48:56.802Z,54.23
2022-11-13T08:51:24.857Z,54.77
2022-11-13T08:53:52.874Z,47.47
2022-11-13T08:56:22.228Z,52.77
2022-11-13T08:58:50.218Z,49.50
2022-11-13T09:01:18.252Z,54.10
2022-11-13T09:03:46.299Z,53.37
2022-11-13T09:06:14.368Z,49.70
2022-11-13T09:08:42.558Z,52.60
2022-11-13T09:11:11.083Z,53.60
2022-11-13T09:13:44.489Z,53.00
2022-11-13T09:16:14.781Z,44.30
2022-11-13T09:18:42.787Z,51.00
2022-11-13T09:21:11.173Z,49.57
2022-11-13T09:23:39.219Z,49.90
2022-11-13T09:26:07.237Z,61.73
2022-11-13T09:28:35.532Z,72.37
2022-11-13T09:31:06.982Z,67.00
2022-11-13T09:33:35.347Z,70.27
2022-11-13T09:36:04.157Z,64.20
2022-11-13T09:38:32.503Z,71.73
2022-11-13T09:41:06.046Z,69.27
2022-11-13T09:43:39.104Z,74.27
2022-11-13T09:46:17.645Z,69.77
2022-11-13T09:48:50.279Z,76.33
2022-11-13T09:51:23.693Z,95.63
2022-11-13T09:53:51.880Z,91.63
2022-11-13T09:56:30.555Z,93.73
2022-11-13T09:59:16.589Z,120.80
2022-11-13T10:01:53.495Z,106.93
2022-11-13T10:04:31.195Z,115.70
2022-11-13T10:07:14.574Z,117.40
2022-11-13T10:09:55.403Z,108.33
2022-11-13T10:12:23.613Z,108.20
2022-11-13T10:14:54.921Z,110.97
2022-11-13T10:17:30.003Z,114.93
2022-11-13T10:20:00.420Z,108.80
2022-11-13T10:22:36.998Z,100.17
2022-11-13T10:25:14.836Z,86.07
2022-11-13T10:27:43.753Z,87.93
2022-11-13T10:30:17.110Z,85.53
2022-11-13T10:32:47.636Z,89.50
2022-11-13T10:35:32.758Z,85.47
2022-11-13T10:38:08.683Z,85.10
2022-11-13T10:40:39.000Z,96.73
2022-11-13T10:43:14.383Z,81.50
2022-11-13T10:45:43.549Z,82.83
2022-11-13T10:48:22.992Z,77.93
2022-11-13T10:50:56.206Z,64.60
2022-11-13T10:53:25.654Z,63.77
2022-11-13T10:55:57.065Z,70.27
2022-11-13T10:58:25.364Z,61.07
2022-11-13T11:00:53.625Z,63.17
2022-11-13T11:03:25.531Z,51.30
2022-11-13T11:05:55.610Z,55.63
2022-11-13T11:08:29.682Z,50.13
2022-11-13T11:11:18.801Z,45.70
2022-11-13T11:13:47.080Z,49.27
2022-11-13T11:16:21.239Z,51.33
2022-11-13T11:18:55.084Z,46.10
2022-11-13T11:21:27.738Z,48.60
2022-11-13T11:24:00.300Z,47.43
2022-11-13T11:26:33.898Z,43.23
2022-11-13T11:29:08.294Z,48.03
2022-11-13T11:31:42.842Z,48.83
2022-11-13T11:34:21.557Z,45.67
2022-11-13T11:36:59.422Z,47.73
2022-11-13T11:39:31.176Z,42.77
2022-11-13T11:42:09.376Z,43.73
2022-11-13T11:44:45.290Z,43.33
2022-11-13T11:47:18.138Z,39.77
2022-11-13T11:49:47.937Z,38.20
2022-11-13T11:52:38.053Z,42.00
2022-11-13T11:55:18.953Z,40.13
2022-11-13T11:57:53.264Z,44.73
2022-11-13T12:00:22.121Z,45.33
2022-11-13T12:03:15.909Z,42.63
2022-11-13T12:05:55.665Z,51.80
2022-11-13T12:08:34.607Z,39.87
2022-11-13T12:11:12.867Z,39.87
2022-11-13T12:13:50.662Z,42.37
2022-11-13T12:16:25.988Z,40.07
2022-11-13T12:19:04.016Z,40.80
2022-11-13T12:21:44.306Z,37.43
2022-11-13T12:24:44.581Z,34.57
2022-11-13T12:27:22.403Z,37.67
2022-11-13T12:30:04.807Z,41.33
2022-11-13T12:32:54.120Z,46.87
2022-11-13T12:35:24.627Z,43.57
2022-11-13T12:37:59.055Z,42.80
2022-11-13T12:40:31.247Z,47.30
2022-11-13T12:43:17.583Z,41.73
2022-11-13T12:45:51.882Z,39.90
2022-11-13T12:48:29.565Z,33.57
2022-11-13T12:51:00.295Z,39.83
2022-11-13T12:53:31.425Z,40.87
2022-11-13T12:56:01.625Z,41.40
2022-11-13T12:58:31.842Z,45.17
2022-11-13T13:01:06.729Z,44.03
2022-11-13T13:03:57.118Z,49.13
2022-11-13T13:06:43.874Z,40.30
2022-11-13T13:09:27.833Z,47.67
2022-11-13T13:12:04.153Z,40.97
2022-11-13T13:14:46.920Z,40.33
2022-11-13T13:17:20.719Z,42.43
2022-11-13T13:19:59.844Z,39.07
2022-11-13T13:22:30.560Z,44.03
2022-11-13T13:25:07.508Z,38.70
2022-11-13T13:27:40.025Z,37.93
2022-11-13T13:30:19.691Z,41.27
2022-11-13T13:32:58.849Z,38.03
2022-11-13T13:35:32.502Z,37.07
2022-11-13T13:38:07.035Z,39.67
2022-11-13T13:40:42.449Z,38.93
2022-11-13T13:43:29.363Z,36.40
2022-11-13T13:46:05.790Z,37.60
2022-11-13T13:48:38.124Z,38.13
2022-11-13T13:51:23.825Z,38.07
2022-11-13T13:53:51.924Z,40.63
2022-11-13T13:56:23.455Z,40.87
2022-11-13T13:58:53.367Z,42.77
2022-11-13T14:01:29.992Z,36.77
2022-11-13T14:04:14.845Z,42.97
2022-11-13T14:06:50.336Z,40.73
2022-11-13T14:09:20.905Z,41.07
2022-11-13T14:11:58.141Z,44.67
2022-11-13T14:14:26.665Z,35.20
2022-11-13T14:16:57.038Z,37.33
2022-11-13T14:19:25.393Z,37.07
2022-11-13T14:21:57.299Z,36.70
2022-11-13T14:24:28.116Z,36.30
2022-11-13T14:26:59.624Z,35.40
2022-11-13T14:29:36.325Z,35.57
2022-11-13T14:32:06.191Z,33.67
2022-11-13T14:34:34.426Z,34.77
2022-11-13T14:37:18.746Z,31.23
2022-11-13T14:39:48.666Z,32.17
2022-11-13T14:42:21.281Z,29.80
2022-11-13T14:44:49.536Z,31.47
2022-11-13T14:47:26.216Z,31.95
2022-11-13T14:49:54.314Z,33.57
2022-11-13T14:52:24.128Z,39.00
2022-11-13T14:55:18.541Z,38.30
2022-11-13T14:57:51.737Z,31.43
2022-11-13T15:00:26.945Z,36.77
2022-11-13T15:02:54.946Z,36.57
2022-11-13T15:05:23.256Z,35.70
2022-11-13T15:07:52.029Z,34.63
2022-11-13T15:10:21.763Z,43.03
2022-11-13T15:12:51.229Z,33.17
2022-11-13T15:15:20.990Z,35.37
2022-11-13T15:17:52.042Z,33.97
2022-11-13T15:20:24.501Z,33.83
2022-11-13T15:22:53.801Z,32.50
2022-11-13T15:25:24.184Z,32.83
2022-11-13T15:27:53.623Z,30.57
2022-11-13T15:30:22.646Z,34.97
2022-11-13T15:32:54.139Z,32.97
2022-11-13T15:35:22.507Z,28.90
2022-11-13T15:37:50.592Z,35.37
2022-11-13T15:40:19.079Z,34.10
2022-11-13T15:42:47.487Z,34.80
2022-11-13T15:45:17.702Z,33.17
2022-11-13T15:47:45.987Z,32.60
2022-11-13T15:50:15.634Z,27.67
2022-11-13T15:52:46.910Z,30.47
2022-11-13T15:55:21.542Z,37.73
2022-11-13T15:57:50.241Z,32.90
2022-11-13T16:00:24.890Z,30.73
2022-11-13T16:02:55.374Z,35.47
2022-11-13T16:05:25.495Z,37.63
2022-11-13T16:07:54.071Z,31.17
2022-11-13T16:10:25.102Z,39.43
2022-11-13T16:12:53.708Z,34.70
2022-11-13T16:15:23.259Z,33.10
2022-11-13T16:17:54.654Z,31.07
2022-11-13T16:20:22.736Z,34.40
2022-11-13T16:22:51.120Z,58.13
2022-11-13T16:25:21.091Z,45.63
2022-11-13T16:27:49.561Z,38.03
2022-11-13T16:30:20.914Z,32.57
2022-11-13T16:32:50.427Z,34.63
2022-11-13T16:35:20.002Z,34.93
2022-11-13T16:37:48.310Z,33.23
2022-11-13T16:40:24.678Z,37.67
2022-11-13T16:42:52.766Z,48.00
2022-11-13T16:45:21.950Z,31.83
2022-11-13T16:47:51.640Z,32.97
2022-11-13T16:50:23.753Z,29.97
2022-11-13T16:52:52.584Z,35.03
2022-11-13T16:55:20.631Z,33.37
2022-11-13T16:57:48.644Z,36.37
2022-11-13T17:00:20.468Z,39.40
2022-11-13T17:02:52.748Z,35.63
2022-11-13T17:05:21.914Z,37.83
2022-11-13T17:07:51.898Z,36.93
2022-11-13T17:10:31.481Z,44.03
2022-11-13T17:13:01.061Z,39.97
2022-11-13T17:15:29.261Z,43.97
2022-11-13T17:17:59.813Z,43.63
2022-11-13T17:20:27.836Z,43.17
2022-11-13T17:22:56.083Z,42.30
2022-11-13T17:25:26.720Z,41.97
2022-11-13T17:27:55.101Z,46.87
2022-11-13T17:30:23.810Z,41.27
2022-11-13T17:32:51.805Z,42.33
2022-11-13T17:35:21.234Z,47.10
2022-11-13T17:37:49.226Z,49.83
2022-11-13T17:40:17.735Z,44.70
2022-11-13T17:42:47.975Z,47.83
2022-11-13T17:45:16.206Z,51.60
2022-11-13T17:47:44.713Z,52.13
2022-11-13T17:50:12.759Z,49.63
2022-11-13T17:52:42.216Z,51.33
2022-11-13T17:55:13.023Z,56.10
2022-11-13T17:57:41.036Z,53.33
2022-11-13T18:00:10.455Z,57.07
2022-11-13T18:02:39.512Z,57.23
2022-11-13T18:05:09.844Z,57.00
2022-11-13T18:07:38.046Z,60.33
2022-11-13T18:10:08.781Z,57.53
2022-11-13T18:12:36.839Z,53.07
2022-11-13T18:15:05.633Z,60.07
2022-11-13T18:17:33.634Z,57.07
2022-11-13T18:20:02.386Z,60.13
2022-11-13T18:22:31.596Z,62.07
2022-11-13T18:25:01.484Z,58.60
2022-11-13T18:27:31.243Z,60.37
2022-11-13T18:29:59.245Z,56.87
2022-11-13T18:32:27.241Z,58.23
2022-11-13T18:34:55.337Z,55.83
2022-11-13T18:37:23.390Z,53.10
2022-11-13T18:39:51.456Z,59.23
2022-11-13T18:42:19.561Z,57.80
2022-11-13T18:44:48.918Z,60.50
2022-11-13T18:47:17.812Z,57.90
2022-11-13T18:49:45.856Z,56.27
2022-11-13T18:52:14.251Z,60.67
2022-11-13T18:54:42.223Z,60.47
2022-11-13T18:57:10.354Z,67.17
2022-11-13T18:59:38.369Z,79.10
2022-11-13T19:02:08.068Z,69.57
2022-11-13T19:04:36.737Z,67.13
2022-11-13T19:07:04.983Z,70.67
2022-11-13T19:09:33.069Z,73.00
2022-11-13T19:12:01.046Z,69.97
2022-11-13T19:14:29.047Z,69.90
2022-11-13T19:16:57.055Z,77.80
2022-11-13T19:19:26.448Z,70.60
2022-11-13T19:21:54.455Z,66.17
2022-11-13T19:24:25.127Z,75.57
2022-11-13T19:26:53.089Z,75.90
2022-11-13T19:29:21.523Z,74.80
2022-11-13T19:31:50.050Z,72.43
2022-11-13T19:34:18.455Z,79.23
2022-11-13T19:36:49.539Z,80.43
2022-11-13T19:39:18.173Z,81.13
2022-11-13T19:41:46.173Z,74.97
2022-11-13T19:44:14.339Z,77.43
2022-11-13T19:46:42.399Z,77.80
2022-11-13T19:49:10.945Z,78.47
2022-11-13T19:51:39.036Z,81.60
2022-11-13T19:54:10.271Z,75.30
2022-11-13T19:56:38.440Z,86.90
2022-11-13T19:59:06.815Z,84.80
2022-11-13T20:01:35.705Z,83.33
2022-11-13T20:04:04.904Z,79.60
2022-11-13T20:06:33.799Z,86.57
2022-11-13T20:09:03.629Z,89.13
2022-11-13T20:11:34.019Z,77.60
2022-11-13T20:14:02.481Z,86.07
2022-11-13T20:16:30.697Z,87.10
2022-11-13T20:18:59.572Z,92.07
2022-11-13T20:21:30.365Z,78.27
2022-11-13T20:24:00.058Z,90.90
2022-11-13T20:26:29.836Z,84.83
2022-11-13T20:28:59.442Z,80.47
2022-11-13T20:31:30.541Z,81.73
2022-11-13T20:33:58.951Z,86.37
2022-11-13T20:36:27.420Z,88.33
2022-11-13T20:38:57.253Z,90.33
2022-11-13T20:41:26.526Z,89.67
2022-11-13T20:43:55.941Z,90.23
2022-11-13T20:46:25.335Z,89.27
2022-11-13T20:48:53.421Z,83.57
2022-11-13T20:51:23.096Z,83.67
2022-11-13T20:53:51.986Z,96.07
2022-11-13T20:56:21.650Z,85.37
2022-11-13T20:58:50.123Z,94.33
2022-11-13T21:01:19.512Z,99.03
2022-11-13T21:03:49.867Z,97.97
2022-11-13T21:06:19.416Z,115.33
2022-11-13T21:08:48.065Z,109.57
2022-11-13T21:11:18.962Z,114.30
2022-11-13T21:13:49.048Z,112.10
2022-11-13T21:16:18.201Z,114.10
2022-11-13T21:18:48.326Z,118.27
2022-11-13T21:21:18.810Z,118.33
2022-11-13T21:23:49.896Z,141.97
2022-11-13T21:26:18.320Z,133.73
2022-11-13T21:28:46.759Z,118.37
2022-11-13T21:31:16.506Z,110.17
2022-11-13T21:33:45.986Z,117.53
2022-11-13T21:36:17.201Z,118.50
2022-11-13T21:38:45.494Z,95.67
2022-11-13T21:41:24.826Z,116.60
2022-11-13T21:43:57.941Z,107.87
2022-11-13T21:46:29.726Z,93.40
2022-11-13T21:48:59.755Z,79.70
2022-11-13T21:51:29.666Z,86.93
2022-11-13T21:53:57.950Z,76.67
2022-11-13T21:56:27.380Z,77.27
2022-11-13T21:58:56.023Z,74.23
2022-11-13T22:01:24.263Z,69.53
2022-11-13T22:03:52.685Z,61.97
2022-11-13T22:06:22.550Z,64.00
2022-11-13T22:08:57.381Z,57.27
2022-11-13T22:11:26.628Z,51.63
2022-11-13T22:13:55.025Z,51.83
2022-11-13T22:16:23.630Z,59.57
2022-11-13T22:18:54.919Z,52.70
2022-11-13T22:21:24.432Z,49.30
2022-11-13T22:23:52.696Z,49.77
2022-11-13T22:26:23.696Z,57.63
2022-11-13T22:28:52.776Z,57.90
2022-11-13T22:31:22.787Z,49.40
2022-11-13T22:33:54.823Z,50.93
2022-11-13T22:36:25.068Z,53.07
2022-11-13T22:38:53.667Z,55.57
2022-11-13T22:41:24.517Z,55.10
2022-11-13T22:43:54.156Z,54.33
2022-11-13T22:46:25.428Z,51.67
2022-11-13T22:48:54.863Z,53.43
2022-11-13T22:51:24.146Z,52.27
2022-11-13T22:53:53.670Z,51.40
2022-11-13T22:56:24.647Z,53.30
2022-11-13T22:58:53.616Z,60.37
2022-11-13T23:01:23.448Z,56.83
2022-11-13T23:03:52.747Z,55.90
2022-11-13T23:06:22.151Z,53.37
2022-11-13T23:08:50.712Z,49.77
2022-11-13T23:11:20.608Z,53.63
2022-11-13T23:13:52.007Z,54.90
2022-11-13T23:16:21.533Z,59.53
2022-11-13T23:18:50.454Z,54.40
2022-11-13T23:21:19.542Z,56.00
2022-11-13T23:23:47.810Z,56.00
2022-11-13T23:26:17.062Z,54.80
2022-11-13T23:28:45.363Z,50.60
2022-11-13T23:31:14.908Z,48.63
2022-11-13T23:33:43.467Z,54.27
2022-11-13T23:36:13.282Z,56.37
2022-11-13T23:38:43.132Z,53.00
2022-11-13T23:41:12.425Z,45.60
2022-11-13T23:44:07.820Z,50.63
2022-11-13T23:46:29.937Z,61.03
2022-11-13T23:48:58.023Z,53.33
2022-11-13T23:51:26.105Z,46.63
2022-11-13T23:53:54.140Z,50.80
2022-11-13T23:56:22.295Z,54.60
2022-11-13T23:58:53.120Z,46.07
